Ada, MI (49301)

7:58 AM EDT on May 24, 2017 (GMT -0400)
Forest Hills - Orchards | | Change Station

Elev 748 ft 42.95 °N, 85.49 °W | Updated 3 minutes ago

Mostly Cloudy
Mostly Cloudy
57.2 °F
Feels Like 57.2 °F
N
0.1
Wind Variable Wind from North
Gusts 1.1 mph

Today
High -- | Low -- °F
--% Chance of Precip.
Yesterday
High -- | Low -- °F
Precip. -- in
Pressure 29.61 in
Visibility 10.0 miles
Clouds Few 7000 ft
Scattered Clouds 16000 ft
Overcast 22000 ft
Dew Point 52 °F
Humidity 82%
Rainfall 0.00 in
Snow Depth Not available.
6:10 AM 9:07 PM
Waning Crescent, 3% visible
METAR KGRR 241153Z 06011KT 10SM FEW070 SCT160 OVC220 14/12 A2960 RMK AO2 SLP025 60000 70004 T01390117 10139 20128 56007
Pressure 29.61 in
Visibility 10.0 miles
Clouds Few 7000 ft
Scattered Clouds 16000 ft
Overcast 22000 ft
Dew Point 52 °F
Humidity 82%
Rainfall 0.00 in
Snow Depth Not available.
6:10 AM 9:07 PM
Waning Crescent, 3% visible
METAR KGRR 241153Z 06011KT 10SM FEW070 SCT160 OVC220 14/12 A2960 RMK AO2 SLP025 60000 70004 T01390117 10139 20128 56007

Get Severe Weather Alerts

Thanks for signing up!

Be on the lookout for a verification email in your inbox.

You'll start receiving the daily forecast at 6 AM.

×

10-Day Weather Forecast

Almanac

Astronomy

May. 24, 2017 Rise Set
Actual Time
Civil Twilight
Nautical Twilight
Astronomical Twilight
Moon
Length of Visible Light
Length of Day
Tomorrow will be .
, % of the Moon is Illuminated

Today's Extremes

State Highs State Lows

Community

WunderPhotos

Category 6

Welcome to Category 6. This is the collective home for Weather Underground's featured writeups by Dr. Jeff Masters (right), Bob Henson (left), Chris Burt, and other regular contributors.

Nearby

Air Quality

  Air Quality AQ Index Pollutant
Not available.

Snow Depth

Station Depth Elevation

Earthquake Activity

City Distance Mag. Time & Date
Minimum magnitude displayed is 2.5.

Coastal Water Temperatures

Place Temperature

Stations

Nearby Weather Stations

Station Location Temp. Windchill Dew Point Humidity Wind Precip. Elev Updated Type
                   

Watches & Warnings

There are currently no watches in effect.